Time;durP1;ratioP1;P1;durP2;ratioP2;P2;SDS_P1;SDS_P2;PMS_P1;PMS_P2;Temp;Humidity;BMP_temperature;BMP_pressure;BME280_temperature;BME280_humidity;BME280_pressure;Samples;Min_cycle;Max_cycle;Signal;HPM_P1;HPM_P2
2022/04/16 00:01:42;;;;;;;21.80;14.13;;;8.50;99.90;;;;;;5064539;28;20106;-33
2022/04/16 00:04:09;;;;;;;23.27;15.33;;;8.40;99.90;;;;;;5064040;28;20047;-34
2022/04/16 00:06:38;;;;;;;21.93;16.30;;;8.30;99.90;;;;;;5046377;28;21014;-34
2022/04/16 00:09:04;;;;;;;23.60;15.87;;;8.30;99.90;;;;;;5058189;28;20114;-34
2022/04/16 00:11:30;;;;;;;21.70;15.60;;;8.30;99.90;;;;;;5066282;28;20308;-35
2022/04/16 00:13:55;;;;;;;21.13;14.80;;;8.40;99.90;;;;;;5064140;28;20155;-34
2022/04/16 00:16:21;;;;;;;21.73;15.00;;;8.30;99.90;;;;;;5053619;28;20498;-35
2022/04/16 00:18:48;;;;;;;21.60;15.83;;;8.20;99.90;;;;;;5060169;28;20131;-32
2022/04/16 00:21:13;;;;;;;21.43;14.47;;;8.20;99.90;;;;;;5065504;28;20083;-31
2022/04/16 00:23:43;;;;;;;20.67;14.53;;;8.30;99.90;;;;;;5064258;28;20511;-32
2022/04/16 00:26:12;;;;;;;17.97;13.03;;;8.10;99.90;;;;;;5057752;28;20128;-36
2022/04/16 00:28:39;;;;;;;19.93;14.40;;;8.10;99.90;;;;;;5057460;28;20090;-35
2022/04/16 00:31:04;;;;;;;17.17;13.13;;;8.00;99.90;;;;;;5062594;28;20383;-32
2022/04/16 00:33:31;;;;;;;18.83;13.73;;;7.90;99.90;;;;;;5061470;28;20056;-33
2022/04/16 00:35:57;;;;;;;19.90;14.23;;;7.90;99.90;;;;;;5062906;28;20396;-32
2022/04/16 00:38:23;;;;;;;18.07;12.60;;;7.90;99.90;;;;;;5049760;28;20055;-34
2022/04/16 00:40:48;;;;;;;18.07;13.70;;;7.70;99.90;;;;;;5058638;28;20109;-34
2022/04/16 00:43:21;;;;;;;17.13;12.53;;;7.70;99.90;;;;;;5063279;28;20066;-32
2022/04/16 00:45:47;;;;;;;20.93;14.13;;;7.70;99.90;;;;;;5063674;28;20067;-34
2022/04/16 00:48:13;;;;;;;21.10;13.90;;;7.60;99.90;;;;;;5047151;28;20056;-33
2022/04/16 00:50:40;;;;;;;20.10;14.27;;;7.60;99.90;;;;;;5059943;28;20048;-31
2022/04/16 00:53:06;;;;;;;19.70;13.60;;;7.50;99.90;;;;;;5064413;28;20238;-34
2022/04/16 00:55:37;;;;;;;17.40;13.20;;;7.40;99.90;;;;;;5063559;28;20071;-35
2022/04/16 00:58:03;;;;;;;18.70;13.53;;;7.30;99.90;;;;;;5047558;28;20029;-34
2022/04/16 01:00:29;;;;;;;18.77;13.63;;;7.30;99.90;;;;;;5060866;28;20048;-35
2022/04/16 01:02:58;;;;;;;19.60;13.70;;;7.20;99.90;;;;;;5064005;28;20040;-34
2022/04/16 01:05:24;;;;;;;21.33;13.10;;;7.20;99.90;;;;;;5060990;28;20128;-34
2022/04/16 01:07:58;;;;;;;17.63;12.70;;;7.10;99.90;;;;;;5044500;28;20056;-34
2022/04/16 01:10:29;;;;;;;19.60;13.33;;;7.10;99.90;;;;;;5044427;28;20052;-35
2022/04/16 01:13:03;;;;;;;16.33;13.07;;;7.00;99.90;;;;;;5062123;28;20451;-35
2022/04/16 01:15:29;;;;;;;18.47;13.20;;;7.00;99.90;;;;;;5044037;28;20099;-34
2022/04/16 01:17:56;;;;;;;17.73;14.03;;;7.00;99.90;;;;;;5028415;28;20037;-34
2022/04/16 01:20:23;;;;;;;21.33;13.60;;;6.90;99.90;;;;;;5044994;28;20048;-34
2022/04/16 01:22:50;;;;;;;21.40;14.00;;;7.00;99.90;;;;;;5045601;28;20048;-33
2022/04/16 01:25:16;;;;;;;22.53;14.23;;;6.80;99.90;;;;;;5060310;28;20077;-34
2022/04/16 01:27:48;;;;;;;24.17;15.27;;;6.80;99.90;;;;;;5045776;28;20503;-33
2022/04/16 01:30:16;;;;;;;20.97;14.57;;;6.80;99.90;;;;;;5058927;28;20445;-34
2022/04/16 01:32:42;;;;;;;17.83;14.00;;;6.80;99.90;;;;;;5063732;28;20044;-35
2022/04/16 01:35:08;;;;;;;23.60;15.80;;;6.70;99.90;;;;;;5055174;28;20044;-35
2022/04/16 01:37:35;;;;;;;22.70;15.37;;;6.60;99.90;;;;;;5041557;28;20056;-34
2022/04/16 01:40:06;;;;;;;21.60;15.13;;;6.60;99.90;;;;;;5057032;28;20119;-35
2022/04/16 01:42:34;;;;;;;15.57;11.20;;;6.60;99.90;;;;;;5063073;28;20041;-35
2022/04/16 01:45:00;;;;;;;19.17;13.57;;;6.60;99.90;;;;;;5060123;28;20047;-31
2022/04/16 01:47:27;;;;;;;23.37;14.63;;;6.60;99.90;;;;;;5044219;28;20450;-35
2022/04/16 01:49:55;;;;;;;22.53;15.07;;;6.50;99.90;;;;;;5063378;28;20229;-35
2022/04/16 01:52:23;;;;;;;20.83;15.00;;;6.50;99.90;;;;;;5063080;28;20052;-33
2022/04/16 01:54:51;;;;;;;21.93;15.50;;;6.30;99.90;;;;;;5062603;28;20588;-34
2022/04/16 01:57:18;;;;;;;20.57;14.13;;;6.40;99.90;;;;;;5046242;28;20028;-31
2022/04/16 01:59:48;;;;;;;21.17;15.13;;;6.40;99.90;;;;;;5062641;28;20048;-33
2022/04/16 02:02:15;;;;;;;23.87;16.07;;;6.30;99.90;;;;;;5061103;28;20074;-35
2022/04/16 02:04:41;;;;;;;21.83;14.83;;;6.30;99.90;;;;;;5052768;28;20401;-35
2022/04/16 02:07:07;;;;;;;22.73;16.00;;;6.30;99.90;;;;;;5046153;28;20074;-34
2022/04/16 02:09:33;;;;;;;22.10;15.93;;;6.30;99.90;;;;;;5063673;28;20047;-35
2022/04/16 02:11:58;;;;;;;23.03;16.07;;;6.20;99.90;;;;;;5063332;28;20430;-33
2022/04/16 02:14:24;;;;;;;20.13;15.00;;;6.20;99.90;;;;;;5061248;28;20041;-35
2022/04/16 02:16:50;;;;;;;21.67;15.07;;;6.20;99.90;;;;;;5048534;28;20392;-35
2022/04/16 02:19:16;;;;;;;21.23;15.77;;;6.10;99.90;;;;;;5060808;28;20072;-32
2022/04/16 02:21:42;;;;;;;22.67;15.60;;;6.10;99.90;;;;;;5059261;28;20088;-34
2022/04/16 02:24:08;;;;;;;20.63;14.67;;;6.10;99.90;;;;;;5059784;28;20424;-34
2022/04/16 02:26:34;;;;;;;24.00;15.77;;;6.10;99.90;;;;;;5048874;28;20056;-34
2022/04/16 02:29:00;;;;;;;18.83;14.83;;;6.10;99.90;;;;;;5061047;28;20040;-34
2022/04/16 02:31:28;;;;;;;24.47;16.20;;;6.00;99.90;;;;;;5062617;28;20135;-34
2022/04/16 02:33:57;;;;;;;24.77;15.67;;;5.90;99.90;;;;;;5061670;28;20083;-32
2022/04/16 02:36:26;;;;;;;21.80;14.73;;;5.90;99.90;;;;;;5032716;28;20512;-35
2022/04/16 02:38:56;;;;;;;22.63;15.43;;;5.80;99.90;;;;;;5060638;28;20138;-32
2022/04/16 02:41:22;;;;;;;20.67;15.60;;;5.80;99.90;;;;;;5060716;28;20044;-35
2022/04/16 02:43:47;;;;;;;23.47;15.97;;;5.80;99.90;;;;;;5058622;28;20062;-34
2022/04/16 02:48:58;;;;;;;23.20;15.07;;;5.70;99.90;;;;;;5060367;28;20294;-34
2022/04/16 02:51:24;;;;;;;22.23;15.80;;;5.60;99.90;;;;;;5062499;28;20456;-35
2022/04/16 02:53:50;;;;;;;23.30;16.57;;;5.60;99.90;;;;;;5061627;28;20459;-33
2022/04/16 02:56:16;;;;;;;20.43;15.17;;;5.60;99.90;;;;;;5048353;28;20040;-32
2022/04/16 02:58:42;;;;;;;21.87;15.97;;;5.60;99.90;;;;;;5056068;28;20048;-35
2022/04/16 03:01:07;;;;;;;22.60;15.87;;;5.50;99.90;;;;;;5062121;28;20052;-32
2022/04/16 03:03:33;;;;;;;24.93;17.47;;;5.50;99.90;;;;;;5060037;28;20040;-35
2022/04/16 03:05:59;;;;;;;23.83;18.10;;;5.50;99.90;;;;;;5061086;28;20036;-35
2022/04/16 03:08:25;;;;;;;23.83;17.17;;;5.50;99.90;;;;;;5046764;28;20045;-31
2022/04/16 03:10:52;;;;;;;28.10;17.77;;;5.50;99.90;;;;;;5061362;28;20482;-34
2022/04/16 03:13:18;;;;;;;29.83;21.17;;;5.50;99.90;;;;;;5060647;28;20074;-31
2022/04/16 03:18:29;;;;;;;34.10;21.70;;;5.60;99.90;;;;;;5045384;28;20047;-35
2022/04/16 03:20:54;;;;;;;30.10;22.33;;;5.60;99.90;;;;;;5059572;28;20040;-32
2022/04/16 03:23:20;;;;;;;37.40;24.77;;;5.70;99.90;;;;;;5041477;28;20503;-33
2022/04/16 03:25:48;;;;;;;40.33;26.77;;;5.70;99.90;;;;;;5057223;28;20091;-33
2022/04/16 03:28:14;;;;;;;39.43;25.23;;;5.80;99.90;;;;;;5046650;28;20500;-32
2022/04/16 03:30:40;;;;;;;40.43;27.10;;;5.90;99.90;;;;;;5061878;28;20086;-33
2022/04/16 03:33:08;;;;;;;37.67;26.70;;;5.90;99.90;;;;;;5061852;28;20471;-34
2022/04/16 03:35:35;;;;;;;44.27;28.73;;;6.00;99.90;;;;;;5059552;28;20076;-33
2022/04/16 03:38:00;;;;;;;44.70;29.80;;;6.10;99.90;;;;;;5041784;28;20086;-33
2022/04/16 03:40:26;;;;;;;47.13;31.13;;;6.20;99.90;;;;;;5059584;28;20580;-34
2022/04/16 03:42:58;;;;;;;43.17;31.60;;;6.20;99.90;;;;;;5060466;28;20044;-34
2022/04/16 03:45:32;;;;;;;47.00;32.37;;;6.30;99.90;;;;;;5061491;28;20055;-35
2022/04/16 03:47:58;;;;;;;46.77;32.40;;;6.40;99.90;;;;;;5049660;28;20522;-34
2022/04/16 03:50:26;;;;;;;47.27;33.37;;;6.40;99.90;;;;;;5066317;28;20511;-35
2022/04/16 03:52:53;;;;;;;50.37;33.60;;;6.50;99.90;;;;;;5065079;28;20052;-32
2022/04/16 04:00:56;;;;;;;47.30;33.30;;;6.60;99.90;;;;;;5062031;28;20506;-33
2022/04/16 04:03:22;;;;;;;47.97;32.53;;;6.60;99.90;;;;;;5063794;28;20482;-34
2022/04/16 04:05:49;;;;;;;50.77;34.57;;;6.70;99.90;;;;;;5063589;28;20131;-35
2022/04/16 04:08:16;;;;;;;48.03;33.43;;;6.70;99.90;;;;;;5049732;28;20455;-31
2022/04/16 04:10:42;;;;;;;48.50;31.80;;;6.80;99.90;;;;;;5064566;28;20381;-32
2022/04/16 04:13:08;;;;;;;49.67;33.50;;;6.80;99.90;;;;;;5062267;28;20041;-35
2022/04/16 04:15:34;;;;;;;50.80;33.53;;;6.90;99.90;;;;;;5060047;28;20048;-34
2022/04/16 04:18:01;;;;;;;44.67;32.33;;;6.90;99.90;;;;;;5048657;28;20098;-33
2022/04/16 04:20:27;;;;;;;50.77;33.83;;;6.90;99.90;;;;;;5062747;28;20121;-34
2022/04/16 04:22:53;;;;;;;49.67;33.63;;;6.90;99.90;;;;;;5063751;28;20514;-35
2022/04/16 04:25:19;;;;;;;52.33;33.57;;;7.00;99.90;;;;;;5065623;28;20041;-33
2022/04/16 04:27:45;;;;;;;45.57;32.90;;;7.00;99.90;;;;;;5049354;28;20060;-35
2022/04/16 04:30:11;;;;;;;53.27;34.63;;;6.90;99.90;;;;;;5059925;28;20622;-34
2022/04/16 04:32:37;;;;;;;47.20;33.33;;;7.00;99.90;;;;;;5062989;28;20401;-35
2022/04/16 04:35:08;;;;;;;53.00;35.07;;;7.00;99.90;;;;;;5063166;28;20055;-33
2022/04/16 04:37:33;;;;;;;54.90;35.83;;;7.00;99.90;;;;;;5046716;28;20147;-32
2022/04/16 04:39:59;;;;;;;54.73;36.83;;;7.00;99.90;;;;;;5060169;28;20405;-31
2022/04/16 04:42:29;;;;;;;57.73;38.07;;;7.00;99.90;;;;;;5060289;28;20045;-33
2022/04/16 04:44:56;;;;;;;55.33;36.93;;;7.00;99.90;;;;;;5063836;28;20053;-34
2022/04/16 04:47:22;;;;;;;57.77;38.13;;;7.00;99.90;;;;;;5047143;28;20051;-34
2022/04/16 04:49:48;;;;;;;54.67;38.33;;;7.00;99.90;;;;;;5054072;28;20059;-34
2022/04/16 04:52:29;;;;;;;58.80;39.00;;;7.00;99.90;;;;;;5053238;28;20049;-32
2022/04/16 04:54:59;;;;;;;54.22;37.42;;;7.00;99.90;;;;;;5053825;28;20080;-32
2022/04/16 04:57:25;;;;;;;52.00;36.83;;;7.00;99.90;;;;;;5036774;28;20045;-35
2022/04/16 04:59:51;;;;;;;56.60;38.60;;;7.00;99.90;;;;;;5052791;28;20080;-31
2022/04/16 05:02:17;;;;;;;58.80;39.03;;;7.10;99.90;;;;;;5062394;28;20554;-35
2022/04/16 05:04:43;;;;;;;56.30;38.80;;;7.20;99.90;;;;;;5063515;28;20048;-32
2022/04/16 05:07:09;;;;;;;55.37;38.30;;;7.10;99.90;;;;;;5048212;28;20033;-31
2022/04/16 05:09:36;;;;;;;61.93;39.73;;;7.10;99.90;;;;;;5045958;28;20045;-32
2022/04/16 05:12:02;;;;;;;55.23;39.13;;;7.10;99.90;;;;;;5063160;28;20044;-32
2022/04/16 05:14:28;;;;;;;56.87;37.63;;;7.10;99.90;;;;;;5061546;28;20083;-34
2022/04/16 05:16:54;;;;;;;60.30;39.03;;;7.10;99.90;;;;;;5044488;28;20084;-34
2022/04/16 05:19:19;;;;;;;54.53;38.20;;;7.10;99.90;;;;;;5063385;28;20478;-35
2022/04/16 05:21:45;;;;;;;54.50;37.53;;;7.10;99.90;;;;;;5059862;28;20056;-35
2022/04/16 05:24:11;;;;;;;57.30;37.73;;;7.20;99.90;;;;;;5063034;28;20103;-35
2022/04/16 05:26:38;;;;;;;53.03;36.57;;;7.30;99.90;;;;;;5049125;28;20362;-34
2022/04/16 05:29:04;;;;;;;50.67;35.00;;;7.20;99.90;;;;;;5047284;28;20071;-34
2022/04/16 05:31:30;;;;;;;49.13;34.83;;;7.20;99.90;;;;;;5059274;28;20147;-34
2022/04/16 05:36:42;;;;;;;49.90;34.00;;;7.20;99.90;;;;;;5049205;28;20060;-34
2022/04/16 05:39:08;;;;;;;49.93;33.50;;;7.20;99.90;;;;;;5061638;28;20055;-35
2022/04/16 05:41:33;;;;;;;47.53;33.93;;;7.20;99.90;;;;;;5064260;28;20049;-33
2022/04/16 05:44:00;;;;;;;47.47;32.93;;;7.20;99.90;;;;;;5062673;28;20045;-34
2022/04/16 05:46:25;;;;;;;44.50;31.13;;;7.30;99.90;;;;;;5045643;28;20045;-35
2022/04/16 05:48:51;;;;;;;43.93;31.40;;;7.30;99.90;;;;;;5058095;28;20501;-34
2022/04/16 05:51:18;;;;;;;40.00;29.23;;;7.30;99.90;;;;;;5063490;28;20079;-35
2022/04/16 05:53:45;;;;;;;42.33;29.03;;;7.30;99.90;;;;;;5056780;28;20448;-32
2022/04/16 05:56:11;;;;;;;40.33;28.67;;;7.30;99.90;;;;;;5048542;28;20096;-32
2022/04/16 05:58:37;;;;;;;38.43;27.37;;;7.40;99.90;;;;;;5055246;28;20052;-34
2022/04/16 06:01:03;;;;;;;38.90;26.80;;;7.40;99.90;;;;;;5064140;28;20045;-33
2022/04/16 06:03:30;;;;;;;40.07;27.30;;;7.40;99.90;;;;;;5043209;28;20056;-32
2022/04/16 06:05:57;;;;;;;35.80;25.60;;;7.40;99.90;;;;;;5061002;28;20059;-35
2022/04/16 06:08:22;;;;;;;40.27;27.10;;;7.40;99.90;;;;;;5046126;28;20491;-33
2022/04/16 06:10:48;;;;;;;39.57;25.70;;;7.60;99.90;;;;;;5060419;28;20124;-33
2022/04/16 06:13:14;;;;;;;36.30;25.33;;;7.50;99.90;;;;;;5027904;28;20535;-35
2022/04/16 06:15:41;;;;;;;35.43;24.20;;;7.50;99.90;;;;;;5061699;28;20549;-35
2022/04/16 06:18:08;;;;;;;28.70;20.53;;;7.60;99.90;;;;;;5047833;28;20071;-34
2022/04/16 06:20:34;;;;;;;32.93;23.60;;;7.60;99.90;;;;;;5059220;28;20123;-33
2022/04/16 06:23:00;;;;;;;32.83;22.83;;;7.60;99.90;;;;;;5051649;28;20135;-34
2022/04/16 06:25:26;;;;;;;33.90;23.77;;;7.60;99.90;;;;;;5063261;28;20127;-33
2022/04/16 06:27:51;;;;;;;33.10;23.27;;;7.60;99.90;;;;;;5044233;28;20063;-35
2022/04/16 06:30:17;;;;;;;31.53;22.73;;;7.70;99.90;;;;;;5061672;28;20066;-34
2022/04/16 06:32:43;;;;;;;39.30;24.10;;;7.70;99.90;;;;;;5043442;28;20143;-35
2022/04/16 06:35:12;;;;;;;33.87;23.13;;;7.70;99.90;;;;;;5060782;28;20044;-33
2022/04/16 06:37:40;;;;;;;34.60;23.67;;;7.80;99.90;;;;;;5046670;28;20507;-35
2022/04/16 06:40:06;;;;;;;35.03;22.43;;;7.80;99.90;;;;;;5061560;28;20055;-35
2022/04/16 06:42:32;;;;;;;32.17;21.97;;;7.80;99.90;;;;;;5061344;28;20821;-36
2022/04/16 06:44:58;;;;;;;31.87;23.07;;;7.90;99.90;;;;;;5060265;28;20106;-35
2022/04/16 06:47:24;;;;;;;35.87;23.73;;;7.90;99.90;;;;;;5046353;28;20076;-36
2022/04/16 06:49:50;;;;;;;32.63;23.17;;;8.10;99.90;;;;;;5062116;28;20048;-36
2022/04/16 06:52:19;;;;;;;35.37;22.63;;;8.00;99.90;;;;;;5061041;28;20491;-36
2022/04/16 06:54:45;;;;;;;35.00;22.83;;;8.00;99.90;;;;;;5059600;28;20098;-33
2022/04/16 06:57:11;;;;;;;31.67;22.63;;;8.10;99.90;;;;;;5045967;28;20063;-35
2022/04/16 06:59:37;;;;;;;33.90;22.40;;;8.20;99.90;;;;;;5060783;28;21185;-33
2022/04/16 07:02:08;;;;;;;32.20;21.53;;;8.30;99.90;;;;;;5060116;28;20056;-36
2022/04/16 07:04:34;;;;;;;37.47;22.88;;;8.40;99.90;;;;;;5058557;28;20047;-36
2022/04/16 07:07:00;;;;;;;30.87;21.03;;;8.40;99.90;;;;;;5040932;28;20044;-35
2022/04/16 07:09:26;;;;;;;31.43;21.73;;;8.50;99.90;;;;;;5052342;28;20066;-33
2022/04/16 07:11:52;;;;;;;29.20;20.27;;;8.70;99.90;;;;;;5060217;28;20480;-35
2022/04/16 07:14:18;;;;;;;27.97;19.83;;;8.60;99.90;;;;;;5052925;28;20051;-36
2022/04/16 07:16:44;;;;;;;27.77;18.43;;;8.70;99.90;;;;;;5044403;28;20058;-36
2022/04/16 07:19:10;;;;;;;24.93;18.23;;;8.80;99.90;;;;;;5062664;28;20053;-33
2022/04/16 07:21:36;;;;;;;27.10;18.27;;;8.80;99.90;;;;;;5061467;28;20045;-35
2022/04/16 07:24:01;;;;;;;24.37;16.60;;;8.90;99.90;;;;;;5063091;28;20056;-37
2022/04/16 07:26:27;;;;;;;24.20;16.43;;;8.90;99.90;;;;;;5052519;28;20037;-36
2022/04/16 07:28:53;;;;;;;23.03;15.50;;;9.10;99.90;;;;;;5052281;28;20049;-35
2022/04/16 07:31:19;;;;;;;25.33;16.40;;;9.00;99.90;;;;;;5054159;28;20496;-36
2022/04/16 07:33:45;;;;;;;23.57;16.90;;;9.10;99.90;;;;;;5054278;28;20048;-35
2022/04/16 07:36:11;;;;;;;20.13;14.77;;;9.10;99.90;;;;;;5055120;28;20045;-35
2022/04/16 07:38:37;;;;;;;20.63;15.23;;;9.10;99.90;;;;;;5057138;28;20036;-36
2022/04/16 07:41:03;;;;;;;27.13;17.97;;;9.20;99.90;;;;;;5063542;28;20599;-36
2022/04/16 07:43:29;;;;;;;27.07;18.70;;;9.20;99.90;;;;;;5038003;28;20048;-33
2022/04/16 07:45:55;;;;;;;24.33;17.23;;;9.20;99.90;;;;;;5051140;28;20120;-35
2022/04/16 07:48:21;;;;;;;25.57;16.77;;;9.20;99.90;;;;;;5038838;28;20056;-35
2022/04/16 07:50:47;;;;;;;23.43;17.40;;;9.30;99.90;;;;;;5056362;28;20080;-36
2022/04/16 07:53:13;;;;;;;26.13;17.50;;;9.30;99.90;;;;;;5055523;28;20292;-35
2022/04/16 07:55:38;;;;;;;23.40;16.80;;;9.30;99.90;;;;;;5055445;28;20040;-36
2022/04/16 07:58:04;;;;;;;23.73;16.63;;;9.40;99.90;;;;;;5044053;28;20495;-36
2022/04/16 08:00:30;;;;;;;26.37;16.60;;;9.40;99.90;;;;;;5044138;28;20044;-34
2022/04/16 08:02:56;;;;;;;24.03;16.27;;;9.40;99.90;;;;;;5062164;28;20048;-36
2022/04/16 08:05:21;;;;;;;23.17;15.77;;;9.40;99.90;;;;;;5061231;28;20147;-33
2022/04/16 08:07:47;;;;;;;20.27;14.07;;;9.40;99.90;;;;;;5045282;28;20571;-32
2022/04/16 08:10:13;;;;;;;20.33;12.60;;;9.40;99.90;;;;;;5060260;28;20206;-35
2022/04/16 08:12:38;;;;;;;17.87;11.27;;;9.50;99.90;;;;;;5056744;28;20152;-36
2022/04/16 08:15:06;;;;;;;19.03;11.00;;;9.50;99.90;;;;;;5061204;28;20475;-35
2022/04/16 08:17:32;;;;;;;19.90;12.53;;;9.50;99.90;;;;;;5023628;28;20191;-36
2022/04/16 08:19:58;;;;;;;17.90;11.90;;;9.50;99.90;;;;;;5035666;28;20448;-35
2022/04/16 08:22:23;;;;;;;18.37;11.77;;;9.50;99.90;;;;;;5056370;28;20127;-37
2022/04/16 08:27:35;;;;;;;16.73;11.73;;;9.50;99.90;;;;;;5020131;28;20075;-35
2022/04/16 08:30:01;;;;;;;18.50;11.33;;;9.50;99.90;;;;;;5058124;28;20040;-33
2022/04/16 08:32:27;;;;;;;16.20;10.70;;;9.60;99.90;;;;;;5038921;28;20044;-34
2022/04/16 08:34:52;;;;;;;17.23;11.23;;;9.60;99.90;;;;;;5057091;28;20044;-31
2022/04/16 08:37:18;;;;;;;16.77;10.93;;;9.60;99.90;;;;;;5048901;28;20520;-35
2022/04/16 08:39:45;;;;;;;14.17;8.70;;;9.70;99.90;;;;;;5065039;28;20037;-32
2022/04/16 08:42:11;;;;;;;13.40;8.07;;;9.70;99.90;;;;;;5061719;28;20681;-34
2022/04/16 08:44:39;;;;;;;12.13;8.13;;;9.80;99.90;;;;;;5063340;28;20073;-35
2022/04/16 08:47:05;;;;;;;14.03;6.77;;;9.70;99.90;;;;;;5045306;28;20060;-31
2022/04/16 08:49:33;;;;;;;11.97;5.47;;;9.90;99.90;;;;;;5063580;28;20075;-35
2022/04/16 08:51:59;;;;;;;7.53;4.97;;;9.80;99.90;;;;;;5064184;28;20063;-34
2022/04/16 08:54:25;;;;;;;8.20;5.13;;;9.80;99.90;;;;;;5064403;28;20142;-32
2022/04/16 08:56:51;;;;;;;6.70;4.77;;;9.80;99.90;;;;;;5047273;28;20048;-35
2022/04/16 08:59:17;;;;;;;5.07;3.07;;;9.80;99.90;;;;;;5055429;28;20055;-35
2022/04/16 09:01:43;;;;;;;9.27;4.03;;;9.80;99.90;;;;;;5057705;28;20582;-34
2022/04/16 09:04:21;;;;;;;6.90;4.03;;;9.90;99.90;;;;;;5061589;28;20090;-34
2022/04/16 09:07:02;;;;;;;4.93;3.70;;;10.00;99.90;;;;;;5046531;28;20055;-35
2022/04/16 09:09:28;;;;;;;6.37;4.10;;;10.00;99.90;;;;;;5061173;28;20074;-35
2022/04/16 09:11:55;;;;;;;6.27;4.23;;;10.10;99.90;;;;;;5063704;28;20119;-33
2022/04/16 09:14:35;;;;;;;4.80;3.30;;;10.10;99.90;;;;;;5058809;28;20045;-41
2022/04/16 09:17:01;;;;;;;5.27;3.03;;;10.10;99.90;;;;;;5048642;28;20101;-32
2022/04/16 09:19:29;;;;;;;3.40;2.53;;;10.10;99.90;;;;;;5063150;28;20461;-35
2022/04/16 09:21:55;;;;;;;5.33;2.40;;;10.20;99.90;;;;;;5055629;28;20052;-34
2022/04/16 09:24:21;;;;;;;5.53;2.67;;;10.20;99.90;;;;;;5062508;28;20131;-35
2022/04/16 09:26:49;;;;;;;5.95;2.38;;;10.30;99.90;;;;;;5049133;28;20503;-36
2022/04/16 09:29:16;;;;;;;3.53;2.45;;;10.40;99.90;;;;;;5063182;28;20032;-35
2022/04/16 09:31:45;;;;;;;3.15;2.13;;;10.30;99.90;;;;;;5063819;28;20045;-34
2022/04/16 09:34:23;;;;;;;2.87;1.97;;;10.50;99.90;;;;;;5062115;28;20052;-34
2022/04/16 09:36:50;;;;;;;2.47;1.60;;;10.30;99.90;;;;;;5049433;28;20602;-33
2022/04/16 09:39:17;;;;;;;2.70;1.73;;;10.30;99.90;;;;;;5061146;28;20045;-33
2022/04/16 09:41:47;;;;;;;4.07;1.55;;;10.50;99.90;;;;;;5057886;28;20432;-35
2022/04/16 09:44:25;;;;;;;3.28;1.40;;;10.50;99.90;;;;;;5063201;28;20040;-34
2022/04/16 09:46:52;;;;;;;2.72;1.00;;;10.60;99.90;;;;;;5046787;28;20049;-35
2022/04/16 09:49:18;;;;;;;2.50;1.33;;;10.60;99.90;;;;;;5061579;28;20080;-33
2022/04/16 09:51:48;;;;;;;2.17;1.25;;;10.60;99.90;;;;;;5061427;28;20060;-34
2022/04/16 09:54:14;;;;;;;1.80;0.63;;;10.70;99.90;;;;;;5061754;28;20051;-35
2022/04/16 09:56:42;;;;;;;2.37;0.97;;;10.80;99.90;;;;;;5044641;28;20531;-34
2022/04/16 09:59:12;;;;;;;3.00;0.60;;;10.90;99.90;;;;;;5063189;28;20040;-35
2022/04/16 10:01:43;;;;;;;1.57;0.77;;;11.00;99.90;;;;;;5060524;28;20560;-34
2022/04/16 10:04:08;;;;;;;1.58;0.60;;;11.00;99.90;;;;;;5051870;28;20942;-32
2022/04/16 10:06:34;;;;;;;3.40;1.15;;;11.10;99.90;;;;;;5048841;28;20239;-33
2022/04/16 10:09:13;;;;;;;1.60;0.95;;;11.10;99.90;;;;;;5059769;28;20135;-35
2022/04/16 10:12:59;;;;;;;1.73;0.82;;;11.10;99.90;;;;;;5062076;28;20055;-35
2022/04/16 10:14:41;;;;;;;1.73;0.68;;;11.20;99.90;;;;;;5060019;28;20117;-35
2022/04/16 10:17:42;;;;;;;2.40;0.80;;;11.20;99.90;;;;;;5045590;28;20446;-32
2022/04/16 10:20:15;;;;;;;1.48;0.57;;;11.20;99.90;;;;;;5055076;28;20044;-35
2022/04/16 10:22:56;;;;;;;1.97;0.60;;;11.30;99.90;;;;;;5055296;28;20041;-32
2022/04/16 10:25:34;;;;;;;2.60;0.77;;;11.30;99.90;;;;;;5061855;28;20102;-34
2022/04/16 10:28:03;;;;;;;3.38;0.70;;;11.40;99.90;;;;;;5046263;28;20457;-35
2022/04/16 10:30:54;;;;;;;1.48;0.73;;;11.50;99.90;;;;;;5061435;28;20109;-33
2022/04/16 10:33:24;;;;;;;3.20;1.02;;;11.50;99.90;;;;;;5061241;28;20159;-33
2022/04/16 10:35:50;;;;;;;3.03;0.90;;;11.60;99.90;;;;;;5062908;28;20548;-34
2022/04/16 10:38:23;;;;;;;2.20;0.85;;;11.70;99.90;;;;;;5045252;28;20062;-34
2022/04/16 10:41:00;;;;;;;3.08;0.73;;;11.60;99.90;;;;;;5063431;28;20048;-35
2022/04/16 10:43:33;;;;;;;3.15;0.80;;;11.70;99.90;;;;;;5061459;28;20131;-34
2022/04/16 10:46:07;;;;;;;1.15;0.60;;;11.80;99.90;;;;;;5063649;28;20048;-36
2022/04/16 10:48:38;;;;;;;2.55;0.90;;;11.90;99.90;;;;;;5050717;28;20048;-32
2022/04/16 10:51:05;;;;;;;1.98;0.75;;;11.80;99.90;;;;;;5061588;28;20525;-35
2022/04/16 10:53:34;;;;;;;3.25;0.70;;;11.90;99.90;;;;;;5062570;28;20143;-35
2022/04/16 10:56:29;;;;;;;3.47;0.82;;;11.90;99.90;;;;;;5049035;28;20065;-35
2022/04/16 10:59:01;;;;;;;2.63;1.05;;;11.90;99.90;;;;;;5063946;28;20519;-36
2022/04/16 11:01:29;;;;;;;3.70;1.00;;;12.10;99.90;;;;;;5065777;28;20036;-32
2022/04/16 11:03:56;;;;;;;1.98;0.80;;;12.10;99.90;;;;;;5060978;28;20455;-35
2022/04/16 11:06:36;;;;;;;1.65;0.80;;;12.00;99.90;;;;;;5054329;28;20387;-33
2022/04/16 11:09:02;;;;;;;4.25;1.00;;;12.10;99.90;;;;;;5064159;28;20119;-34
2022/04/16 11:11:28;;;;;;;1.50;0.60;;;12.10;99.90;;;;;;5064749;28;20058;-32
2022/04/16 11:13:56;;;;;;;2.22;0.95;;;12.20;99.90;;;;;;5066045;28;20462;-34
2022/04/16 11:16:22;;;;;;;1.75;0.68;;;12.20;99.90;;;;;;5053506;28;20633;-35
2022/04/16 11:18:48;;;;;;;1.85;0.90;;;12.30;99.90;;;;;;5062625;28;20492;-35
2022/04/16 11:21:18;;;;;;;5.13;0.73;;;12.40;99.90;;;;;;5064671;28;20048;-36
2022/04/16 11:23:48;;;;;;;2.58;0.73;;;12.40;99.90;;;;;;5065493;28;20511;-35
2022/04/16 11:34:32;;;;;;;0.68;0.30;;;12.80;99.90;;;;;;5064496;28;20055;-35
2022/04/16 11:36:59;;;;;;;1.55;0.30;;;12.90;99.90;;;;;;5051298;28;20052;-36
2022/04/16 11:39:30;;;;;;;1.35;0.10;;;13.00;99.90;;;;;;5066656;28;20048;-36
2022/04/16 11:41:57;;;;;;;;;;;13.10;98.80;;;;;;5056902;28;20226;-34
2022/04/16 11:44:34;;;;;;;2.60;0.30;;;13.20;94.90;;;;;;5065501;28;19920;-34
2022/04/16 11:47:02;;;;;;;1.65;0.30;;;13.30;97.30;;;;;;5050614;28;20434;-35
2022/04/16 11:49:30;;;;;;;2.38;0.40;;;13.40;97.30;;;;;;5042661;28;20048;-35
2022/04/16 11:51:56;;;;;;;2.60;0.30;;;13.50;96.20;;;;;;5045936;28;20543;-35
2022/04/16 11:54:29;;;;;;;2.55;0.28;;;13.50;96.40;;;;;;5045188;28;20068;-35
2022/04/16 11:56:55;;;;;;;3.13;0.20;;;13.50;91.30;;;;;;5031392;28;20102;-32
2022/04/16 11:59:29;;;;;;;1.17;0.45;;;13.60;94.60;;;;;;5045085;28;20049;-34
2022/04/16 12:02:08;;;;;;;7.30;1.00;;;13.60;93.00;;;;;;5025967;28;20102;-35
2022/04/16 12:04:39;;;;;;;3.00;0.63;;;13.70;95.00;;;;;;5062472;28;20397;-35
2022/04/16 12:07:10;;;;;;;1.02;0.45;;;13.80;95.20;;;;;;5049678;28;20043;-35
2022/04/16 12:09:35;;;;;;;2.88;0.57;;;13.80;95.40;;;;;;5047891;28;20138;-35
2022/04/16 12:12:05;;;;;;;5.80;0.88;;;13.90;96.90;;;;;;5045877;28;20121;-34
2022/04/16 12:14:31;;;;;;;3.83;0.80;;;13.90;96.20;;;;;;5049856;28;20051;-33
2022/04/16 12:17:00;;;;;;;1.55;0.40;;;14.00;96.10;;;;;;5050784;28;20098;-36
2022/04/16 12:19:33;;;;;;;3.90;0.82;;;14.00;95.30;;;;;;5060752;28;20044;-34
2022/04/16 12:21:59;;;;;;;4.05;0.82;;;14.10;93.60;;;;;;5056664;28;20052;-34
2022/04/16 12:24:29;;;;;;;2.30;0.60;;;14.10;94.70;;;;;;5064660;28;20544;-36
2022/04/16 12:26:58;;;;;;;0.90;0.40;;;14.10;90.80;;;;;;5050651;28;20102;-35
2022/04/16 12:29:29;;;;;;;5.55;1.00;;;14.10;92.80;;;;;;5064462;28;20503;-35
2022/04/16 12:31:59;;;;;;;2.15;0.70;;;14.20;93.10;;;;;;5055032;28;20350;-36
2022/04/16 12:34:25;;;;;;;1.98;0.40;;;14.30;89.70;;;;;;5056509;28;20036;-35
2022/04/16 12:36:51;;;;;;;0.90;0.30;;;14.20;89.80;;;;;;5050707;28;20079;-35
2022/04/16 12:39:17;;;;;;;1.35;0.38;;;14.20;89.30;;;;;;5062438;28;20049;-34
2022/04/16 12:41:43;;;;;;;2.97;0.50;;;14.20;85.50;;;;;;5060083;28;20067;-32
2022/04/16 12:44:09;;;;;;;1.52;0.60;;;14.30;87.80;;;;;;5060437;28;20543;-35
2022/04/16 12:46:34;;;;;;;0.70;0.40;;;14.30;86.50;;;;;;5050180;28;20411;-36
2022/04/16 12:49:00;;;;;;;3.03;0.40;;;14.40;84.50;;;;;;5056485;28;20052;-35
2022/04/16 12:51:26;;;;;;;2.47;0.40;;;14.50;83.70;;;;;;5059695;28;20353;-37
2022/04/16 12:53:53;;;;;;;3.20;0.60;;;14.50;81.40;;;;;;5062150;28;20068;-37
2022/04/16 12:56:19;;;;;;;2.67;0.40;;;14.50;81.40;;;;;;5051072;28;20052;-39
2022/04/16 12:58:44;;;;;;;2.30;0.47;;;14.60;76.50;;;;;;5056959;28;20816;-37
2022/04/16 13:01:10;;;;;;;5.15;0.60;;;14.60;79.40;;;;;;5050236;28;20052;-37
2022/04/16 13:03:36;;;;;;;2.20;0.40;;;14.70;81.80;;;;;;5058523;28;20060;-38
2022/04/16 13:06:02;;;;;;;1.48;0.60;;;14.70;83.60;;;;;;5042397;28;20152;-37
2022/04/16 13:08:30;;;;;;;2.05;0.60;;;14.70;84.10;;;;;;5043834;28;20049;-34